EDT,Max TemperatureF,Mean TemperatureF,Min TemperatureF,Max Dew PointF,MeanDew PointF,Min DewpointF,Max Humidity, Mean Humidity, Min Humidity, Max Sea Level PressureIn, Mean Sea Level PressureIn, Min Sea Level PressureIn, Max VisibilityMiles, Mean VisibilityMiles, Min VisibilityMiles, Max Wind SpeedMPH, Mean Wind SpeedMPH, Max Gust SpeedMPH,PrecipitationIn, CloudCover, Events, WindDirDegrees
2013-4-1,83,73,63,68,64,61,97,80,51,30.07,30.03,29.99,10,9,6,18,7,30,0.00,3,,244
2013-4-2,85,76,66,68,64,60,100,79,44,30.11,30.04,30.01,10,7,0,16,5,22,0.00,2,Fog,317
2013-4-3,88,77,66,69,64,60,87,71,42,30.07,30.01,29.96,10,10,8,17,8,21,0.00,1,,154
2013-4-4,82,74,66,72,67,64,93,85,69,30.04,29.99,29.88,10,8,1,10,7,14,0.69,5,Rain-Thunderstorm,156
2013-4-5,75,69,62,66,62,54,87,79,53,30.01,29.93,29.84,10,8,4,21,11,26,0.57,6,Rain-Thunderstorm,275
2013-4-6,81,70,59,60,56,53,84,71,42,30.10,30.03,29.98,10,10,10,16,8,21,0.00,4,,12
2013-4-7,84,73,61,61,59,54,97,65,37,30.14,30.08,30.04,10,10,10,16,7,22,0.00,4,,87
2013-4-8,87,75,63,61,58,52,87,58,32,30.13,30.09,30.04,10,10,10,15,5,20,0.00,3,,96
2013-4-9,87,75,63,65,61,56,87,66,35,30.15,30.10,30.06,10,10,10,17,6,23,0.00,2,,111
2013-4-10,90,78,65,71,67,63,93,76,46,30.10,30.03,29.97,10,10,5,18,7,23,0.07,3,Rain-Thunderstorm,122
2013-4-11,88,80,71,72,70,67,93,80,50,30.00,29.93,29.86,10,10,7,18,9,24,0.01,4,,139
2013-4-12,88,81,74,74,72,69,94,83,55,29.95,29.91,29.88,10,10,7,16,9,24,T,4,,173
2013-4-13,88,81,74,73,67,63,88,66,48,29.99,29.93,29.88,10,10,10,15,6,23,0.00,4,,303
2013-4-14,90,80,70,72,70,66,97,75,50,29.97,29.93,29.85,10,10,10,18,7,25,0.00,1,,181
2013-4-15,91,79,66,72,67,62,87,69,44,30.08,29.99,29.94,10,10,8,15,6,20,0.10,4,Rain-Thunderstorm,111
2013-4-16,94,82,70,72,69,64,97,75,39,30.13,30.07,30.02,10,9,5,20,7,25,0.00,3,,84
2013-4-17,89,79,69,69,65,61,90,65,40,30.12,30.07,30.01,10,10,10,16,8,20,0.00,2,,80
2013-4-18,91,81,71,74,68,63,93,70,44,30.05,30.00,29.95,10,9,1,21,7,26,0.41,5,Rain,142
2013-4-19,90,80,70,73,71,67,93,76,50,30.03,30.00,29.94,10,10,10,17,7,23,0.00,2,,165
2013-4-20,89,80,70,73,70,65,94,79,50,30.13,30.02,29.97,10,10,6,17,5,23,0.08,4,Rain-Thunderstorm,42
2013-4-21,89,77,64,70,66,62,93,85,46,30.12,30.06,29.99,10,8,1,20,7,25,0.71,6,Rain-Thunderstorm,65
2013-4-22,82,75,68,71,68,65,97,80,67,30.07,30.01,29.95,10,9,2,14,5,17,0.45,7,Rain,74
2013-4-23,88,78,67,66,64,60,93,72,40,30.10,30.04,29.99,10,10,9,16,10,23,0.00,3,,61
2013-4-24,88,76,63,65,62,59,93,67,39,30.14,30.10,30.06,10,10,10,15,6,18,0.00,1,,66
2013-4-25,88,77,66,67,62,54,87,63,34,30.21,30.15,30.09,10,10,10,14,5,29,0.00,1,,87
2013-4-26,88,76,64,62,61,59,87,60,40,30.24,30.19,30.14,10,10,10,18,7,25,0.00,0,,93
2013-4-27,88,77,66,65,61,58,93,62,37,30.21,30.14,30.07,10,10,7,17,8,25,0.00,1,,92
2013-4-28,89,79,68,69,62,59,81,62,40,30.11,30.04,29.97,10,10,10,18,9,22,0.00,3,,116
2013-4-29,88,77,66,67,64,61,84,69,50,30.03,29.98,29.94,10,10,10,17,7,22,0.00,2,,132
2013-4-30,88,79,69,70,68,65,97,76,51,29.99,29.96,29.91,10,10,10,16,5,21,0.00,3,Thunderstorm,117